createdAt,value
2023-04-10T00:00:33.234Z,7.92
2023-04-10T00:01:33.201Z,7.86
2023-04-10T00:02:33.331Z,7.85
2023-04-10T00:03:33.352Z,7.85
2023-04-10T00:04:33.250Z,7.85
2023-04-10T00:05:33.154Z,7.84
2023-04-10T00:06:33.125Z,7.81
2023-04-10T00:07:33.151Z,7.81
2023-04-10T00:08:33.119Z,7.79
2023-04-10T00:09:33.113Z,7.76
2023-04-10T00:10:33.093Z,7.71
2023-04-10T00:11:33.090Z,7.73
2023-04-10T00:12:33.075Z,7.70
2023-04-10T00:13:33.054Z,7.69
2023-04-10T00:14:33.056Z,7.62
2023-04-10T00:15:33.047Z,7.57
2023-04-10T00:16:33.061Z,7.52
2023-04-10T00:17:33.057Z,7.55
2023-04-10T00:18:32.998Z,7.58
2023-04-10T00:19:32.991Z,7.60
2023-04-10T00:20:33.006Z,7.58
2023-04-10T00:21:32.976Z,7.58
2023-04-10T00:22:32.957Z,7.55
2023-04-10T00:23:32.948Z,7.54
2023-04-10T00:24:32.974Z,7.54
2023-04-10T00:25:32.948Z,7.52
2023-04-10T00:26:32.925Z,7.50
2023-04-10T00:27:32.923Z,7.47
2023-04-10T00:28:32.898Z,7.45
2023-04-10T00:29:32.902Z,7.39
2023-04-10T00:30:32.890Z,7.34
2023-04-10T00:31:32.897Z,7.36
2023-04-10T00:32:32.883Z,7.34
2023-04-10T00:33:32.855Z,7.26
2023-04-10T00:34:32.844Z,7.16
2023-04-10T00:35:32.865Z,7.16
2023-04-10T00:36:32.859Z,7.18
2023-04-10T00:37:32.827Z,7.18
2023-04-10T00:38:32.802Z,7.18
2023-04-10T00:39:32.785Z,7.14
2023-04-10T00:40:32.791Z,7.15
2023-04-10T00:41:32.770Z,7.14
2023-04-10T00:42:32.750Z,7.11
2023-04-10T00:43:32.748Z,7.08
2023-04-10T00:44:32.739Z,7.08
2023-04-10T00:45:32.729Z,7.09
2023-04-10T00:46:32.745Z,7.11
2023-04-10T00:47:32.950Z,7.09
2023-04-10T00:48:32.702Z,7.08
2023-04-10T00:49:32.711Z,7.05
2023-04-10T00:50:32.665Z,7.05
2023-04-10T00:51:32.689Z,7.00
2023-04-10T00:52:32.668Z,6.97
2023-04-10T00:53:32.650Z,6.97
2023-04-10T00:54:32.920Z,6.97
2023-04-10T00:55:32.747Z,6.97
2023-04-10T00:56:32.607Z,6.97
2023-04-10T00:57:32.596Z,6.93
2023-04-10T00:58:32.590Z,6.90
2023-04-10T00:59:32.584Z,6.89
2023-04-10T01:00:32.570Z,6.89
2023-04-10T01:01:32.587Z,6.89
2023-04-10T01:02:32.654Z,6.87
2023-04-10T01:03:32.676Z,6.86
2023-04-10T01:04:32.773Z,6.89
2023-04-10T01:05:32.522Z,6.83
2023-04-10T01:06:32.498Z,6.81
2023-04-10T01:07:32.511Z,6.78
2023-04-10T01:08:32.471Z,6.79
2023-04-10T01:09:32.488Z,6.82
2023-04-10T01:10:32.458Z,6.79
2023-04-10T01:11:32.461Z,6.78
2023-04-10T01:12:32.451Z,6.79
2023-04-10T01:13:32.429Z,6.76
2023-04-10T01:14:32.413Z,6.75
2023-04-10T01:15:32.405Z,6.73
2023-04-10T01:16:32.393Z,6.75
2023-04-10T01:17:32.432Z,6.73
2023-04-10T01:18:32.371Z,6.72
2023-04-10T01:19:32.360Z,6.71
2023-04-10T01:20:32.341Z,6.69
2023-04-10T01:21:32.331Z,6.68
2023-04-10T01:22:32.332Z,6.63
2023-04-10T01:23:32.328Z,6.58
2023-04-10T01:24:32.325Z,6.57
2023-04-10T01:25:32.299Z,6.54
2023-04-10T01:26:32.291Z,6.53
2023-04-10T01:27:32.301Z,6.50
2023-04-10T01:28:32.264Z,6.50
2023-04-10T01:29:32.255Z,6.48
2023-04-10T01:30:32.267Z,6.48
2023-04-10T01:31:32.236Z,6.46
2023-04-10T01:32:32.248Z,6.43
2023-04-10T01:33:32.211Z,6.42
2023-04-10T01:34:32.213Z,6.43
2023-04-10T01:35:32.272Z,6.43
2023-04-10T01:36:32.173Z,6.42
2023-04-10T01:37:32.211Z,6.43
2023-04-10T01:38:32.155Z,6.45
2023-04-10T01:39:32.149Z,6.46
2023-04-10T01:40:32.145Z,6.45
2023-04-10T01:41:32.127Z,6.43
2023-04-10T01:42:32.121Z,6.42
2023-04-10T01:43:32.140Z,6.38
2023-04-10T01:44:32.086Z,6.35
2023-04-10T01:45:32.084Z,6.32
2023-04-10T01:46:32.094Z,6.33
2023-04-10T01:47:32.076Z,6.32
2023-04-10T01:48:32.087Z,6.27
2023-04-10T01:49:32.077Z,6.21
2023-04-10T01:50:32.028Z,6.21
2023-04-10T01:51:32.033Z,6.21
2023-04-10T01:52:32.014Z,6.24
2023-04-10T01:53:31.996Z,6.21
2023-04-10T01:54:31.984Z,6.24
2023-04-10T01:55:31.997Z,6.21
2023-04-10T01:56:31.956Z,6.21
2023-04-10T01:57:31.976Z,6.16
2023-04-10T01:58:31.944Z,6.11
2023-04-10T01:59:31.942Z,6.10
2023-04-10T02:00:31.926Z,6.05
2023-04-10T02:01:31.954Z,6.01
2023-04-10T02:02:32.032Z,5.99
2023-04-10T02:03:32.080Z,5.98
2023-04-10T02:04:31.990Z,5.98
2023-04-10T02:05:31.867Z,6.01
2023-04-10T02:06:31.869Z,6.01
2023-04-10T02:07:31.844Z,6.01
2023-04-10T02:08:31.832Z,5.99
2023-04-10T02:09:31.836Z,5.96
2023-04-10T02:10:31.808Z,5.93
2023-04-10T02:11:31.823Z,5.92
2023-04-10T02:12:31.801Z,5.90
2023-04-10T02:13:31.797Z,5.88
2023-04-10T02:14:31.787Z,5.90
2023-04-10T02:15:31.785Z,5.88
2023-04-10T02:16:31.863Z,5.87
2023-04-10T02:17:31.777Z,5.87
2023-04-10T02:18:31.724Z,5.87
2023-04-10T02:19:31.731Z,5.81
2023-04-10T02:20:31.703Z,5.80
2023-04-10T02:21:31.695Z,5.75
2023-04-10T02:22:31.680Z,5.73
2023-04-10T02:23:31.681Z,5.70
2023-04-10T02:24:31.672Z,5.73
2023-04-10T02:25:31.660Z,5.74
2023-04-10T02:26:31.649Z,5.75
2023-04-10T02:27:31.631Z,5.77
2023-04-10T02:28:31.618Z,5.75
2023-04-10T02:29:31.604Z,5.77
2023-04-10T02:30:31.595Z,5.77
2023-04-10T02:31:31.616Z,5.75
2023-04-10T02:32:31.602Z,5.73
2023-04-10T02:33:31.584Z,5.70
2023-04-10T02:34:31.552Z,5.69
2023-04-10T02:35:31.686Z,5.67
2023-04-10T02:36:31.530Z,5.62
2023-04-10T02:37:31.544Z,5.59
2023-04-10T02:38:31.509Z,5.59
2023-04-10T02:39:31.500Z,5.58
2023-04-10T02:40:31.488Z,5.56
2023-04-10T02:41:31.481Z,5.55
2023-04-10T02:42:31.481Z,5.56
2023-04-10T02:43:31.470Z,5.51
2023-04-10T02:44:31.451Z,5.48
2023-04-10T02:45:31.444Z,5.49
2023-04-10T02:46:31.506Z,5.47
2023-04-10T02:47:31.464Z,5.47
2023-04-10T02:48:31.432Z,5.45
2023-04-10T02:49:31.396Z,5.44
2023-04-10T02:50:31.381Z,5.42
2023-04-10T02:51:31.375Z,5.42
2023-04-10T02:52:31.361Z,5.41
2023-04-10T02:53:31.356Z,5.40
2023-04-10T02:54:31.353Z,5.41
2023-04-10T02:55:31.344Z,5.42
2023-04-10T02:56:31.325Z,5.45
2023-04-10T02:57:31.310Z,5.44
2023-04-10T02:58:31.302Z,5.42
2023-04-10T02:59:31.301Z,5.40
2023-04-10T03:00:31.289Z,5.40
2023-04-10T03:01:31.340Z,5.38
2023-04-10T03:02:31.420Z,5.35
2023-04-10T03:03:31.323Z,5.32
2023-04-10T03:04:31.259Z,5.33
2023-04-10T03:05:31.238Z,5.33
2023-04-10T03:06:31.214Z,5.32
2023-04-10T03:07:31.223Z,5.29
2023-04-10T03:08:31.201Z,5.30
2023-04-10T03:09:31.205Z,5.27
2023-04-10T03:10:31.172Z,5.27
2023-04-10T03:11:31.164Z,5.26
2023-04-10T03:12:31.152Z,5.26
2023-04-10T03:13:31.156Z,5.23
2023-04-10T03:14:31.147Z,5.22
2023-04-10T03:15:31.127Z,5.20
2023-04-10T03:16:31.166Z,5.23
2023-04-10T03:17:31.126Z,5.22
2023-04-10T03:18:31.092Z,5.17
2023-04-10T03:19:31.082Z,5.19
2023-04-10T03:20:31.074Z,5.19
2023-04-10T03:21:31.074Z,5.19
2023-04-10T03:22:31.062Z,5.15
2023-04-10T03:23:31.038Z,5.17
2023-04-10T03:24:31.031Z,5.20
2023-04-10T03:25:31.018Z,5.22
2023-04-10T03:26:31.007Z,5.19
2023-04-10T03:27:31.023Z,5.19
2023-04-10T03:28:30.986Z,5.20
2023-04-10T03:29:30.988Z,5.22
2023-04-10T03:30:30.968Z,5.22
2023-04-10T03:31:31.065Z,5.20
2023-04-10T03:32:30.972Z,5.19
2023-04-10T03:33:30.986Z,5.20
2023-04-10T03:34:30.943Z,5.19
2023-04-10T03:35:31.123Z,5.19
2023-04-10T03:36:30.911Z,5.17
2023-04-10T03:37:30.892Z,5.14
2023-04-10T03:38:30.889Z,5.09
2023-04-10T03:39:30.892Z,5.14
2023-04-10T03:40:30.862Z,5.14
2023-04-10T03:41:30.854Z,5.15
2023-04-10T03:42:30.865Z,5.12
2023-04-10T03:43:30.840Z,5.09
2023-04-10T03:44:30.827Z,5.08
2023-04-10T03:45:30.822Z,5.06
2023-04-10T03:46:30.873Z,5.04
2023-04-10T03:47:30.863Z,5.02
2023-04-10T03:48:30.807Z,5.04
2023-04-10T03:49:30.763Z,5.02
2023-04-10T03:50:30.761Z,4.99
2023-04-10T03:51:30.744Z,4.96
2023-04-10T03:52:30.749Z,4.99
2023-04-10T03:53:30.718Z,5.01
2023-04-10T03:54:30.718Z,5.02
2023-04-10T03:55:30.719Z,5.04
2023-04-10T03:56:30.705Z,5.01
2023-04-10T03:57:30.698Z,5.02
2023-04-10T03:58:30.677Z,5.01
2023-04-10T03:59:38.235Z,5.01
2023-04-10T04:00:31.677Z,5.01
2023-04-10T04:01:30.654Z,5.01
2023-04-10T04:02:30.716Z,4.99
2023-04-10T04:03:30.764Z,4.96
2023-04-10T04:04:30.690Z,4.91
2023-04-10T04:05:30.597Z,4.93
2023-04-10T04:06:30.611Z,4.87
2023-04-10T04:07:30.575Z,4.90
2023-04-10T04:08:30.572Z,4.91
2023-04-10T04:09:30.559Z,4.91
2023-04-10T04:10:30.556Z,4.93
2023-04-10T04:11:30.548Z,4.91
2023-04-10T04:12:30.549Z,4.91
2023-04-10T04:13:30.512Z,4.93
2023-04-10T04:14:30.514Z,4.93
2023-04-10T04:15:30.527Z,4.93
2023-04-10T04:16:30.510Z,4.93
2023-04-10T04:17:30.594Z,4.91
2023-04-10T04:18:30.473Z,4.91
2023-04-10T04:19:30.500Z,4.91
2023-04-10T04:20:30.455Z,4.90
2023-04-10T04:21:30.429Z,4.90
2023-04-10T04:22:30.425Z,4.90
2023-04-10T04:23:30.450Z,4.90
2023-04-10T04:24:30.408Z,4.90
2023-04-10T04:25:30.390Z,4.90
2023-04-10T04:26:30.416Z,4.88
2023-04-10T04:27:30.383Z,4.88
2023-04-10T04:28:30.579Z,4.87
2023-04-10T04:29:30.346Z,4.87
2023-04-10T04:30:30.350Z,4.87
2023-04-10T04:31:30.345Z,4.88
2023-04-10T04:32:30.326Z,4.88
2023-04-10T04:33:30.307Z,4.90
2023-04-10T04:34:30.299Z,4.90
2023-04-10T04:35:30.306Z,4.90
2023-04-10T04:36:30.299Z,4.88
2023-04-10T04:37:30.262Z,4.90
2023-04-10T04:38:30.368Z,4.90
2023-04-10T04:39:30.241Z,4.90
2023-04-10T04:40:30.254Z,4.90
2023-04-10T04:41:30.228Z,4.90
2023-04-10T04:42:30.220Z,4.90
2023-04-10T04:43:31.018Z,4.90
2023-04-10T04:44:30.258Z,4.91
2023-04-10T04:45:30.185Z,4.90
2023-04-10T04:46:30.243Z,4.90
2023-04-10T04:47:30.222Z,4.91
2023-04-10T04:48:30.219Z,4.93
2023-04-10T04:49:30.284Z,4.93
2023-04-10T04:50:30.324Z,4.93
2023-04-10T04:51:30.362Z,4.93
2023-04-10T04:52:30.352Z,4.94
2023-04-10T04:53:30.102Z,4.96
2023-04-10T04:54:30.105Z,4.97
2023-04-10T04:55:30.097Z,4.99
2023-04-10T04:56:30.097Z,5.01
2023-04-10T04:57:30.063Z,5.01
2023-04-10T04:58:30.052Z,5.01
2023-04-10T04:59:30.040Z,5.01
2023-04-10T05:00:30.082Z,5.02
2023-04-10T05:01:30.064Z,5.02
2023-04-10T05:02:30.072Z,5.02
2023-04-10T05:03:30.219Z,5.04
2023-04-10T05:04:30.128Z,5.02
2023-04-10T05:05:30.016Z,5.02
2023-04-10T05:06:29.990Z,5.01
2023-04-10T05:07:29.968Z,5.02
2023-04-10T05:08:29.954Z,5.02
2023-04-10T05:09:29.945Z,5.01
2023-04-10T05:10:29.926Z,5.01
2023-04-10T05:11:29.927Z,4.99
2023-04-10T05:12:29.903Z,4.99
2023-04-10T05:13:29.894Z,5.02
2023-04-10T05:14:29.884Z,5.04
2023-04-10T05:15:29.897Z,5.02
2023-04-10T05:16:29.876Z,5.04
2023-04-10T05:17:29.895Z,5.04
2023-04-10T05:18:29.896Z,5.05
2023-04-10T05:19:29.826Z,5.06
2023-04-10T05:20:29.821Z,5.06
2023-04-10T05:21:29.820Z,5.05
2023-04-10T05:22:29.799Z,5.08
2023-04-10T05:23:29.779Z,5.08
2023-04-10T05:24:29.848Z,5.08
2023-04-10T05:25:29.765Z,5.11
2023-04-10T05:26:29.817Z,5.11
2023-04-10T05:27:29.746Z,5.12
2023-04-10T05:28:29.745Z,5.14
2023-04-10T05:29:29.728Z,5.15
2023-04-10T05:30:29.710Z,5.20
2023-04-10T05:31:29.788Z,5.22
2023-04-10T05:32:29.733Z,5.23
2023-04-10T05:33:29.678Z,5.24
2023-04-10T05:34:29.942Z,5.26
2023-04-10T05:35:29.682Z,5.27
2023-04-10T05:36:29.675Z,5.29
2023-04-10T05:37:29.639Z,5.32
2023-04-10T05:38:29.871Z,5.30
2023-04-10T05:39:29.614Z,5.35
2023-04-10T05:40:29.611Z,5.33
2023-04-10T05:41:29.621Z,5.37
2023-04-10T05:42:29.591Z,5.40
2023-04-10T05:43:30.328Z,5.42
2023-04-10T05:44:29.572Z,5.45
2023-04-10T05:45:29.557Z,5.45
2023-04-10T05:46:29.587Z,5.48
2023-04-10T05:47:29.582Z,5.49
2023-04-10T05:48:29.535Z,5.52
2023-04-10T05:49:29.537Z,5.56
2023-04-10T05:50:30.617Z,5.59
2023-04-10T05:51:29.499Z,5.60
2023-04-10T05:52:29.484Z,5.63
2023-04-10T05:53:29.477Z,5.66
2023-04-10T05:54:29.489Z,5.66
2023-04-10T05:55:29.473Z,5.69
2023-04-10T05:56:29.467Z,5.70
2023-04-10T05:57:29.434Z,5.74
2023-04-10T05:58:29.727Z,5.77
2023-04-10T05:59:29.408Z,5.78
2023-04-10T06:00:29.561Z,5.81
2023-04-10T06:01:29.390Z,5.83
2023-04-10T06:02:29.605Z,5.84
2023-04-10T06:03:29.522Z,5.85
2023-04-10T06:04:29.596Z,5.88
2023-04-10T06:05:29.535Z,5.88
2023-04-10T06:06:29.369Z,5.92
2023-04-10T06:07:29.324Z,5.95
2023-04-10T06:08:29.336Z,5.96
2023-04-10T06:09:29.324Z,5.99
2023-04-10T06:10:29.365Z,5.99
2023-04-10T06:11:29.282Z,6.02
2023-04-10T06:12:29.278Z,6.05
2023-04-10T06:13:29.290Z,6.06
2023-04-10T06:14:29.254Z,6.08
2023-04-10T06:15:29.243Z,6.10
2023-04-10T06:16:29.277Z,6.13
2023-04-10T06:17:29.230Z,6.13
2023-04-10T06:18:29.944Z,6.14
2023-04-10T06:19:29.233Z,6.17
2023-04-10T06:20:29.893Z,6.19
2023-04-10T06:21:29.196Z,6.20
2023-04-10T06:22:30.188Z,6.24
2023-04-10T06:23:29.164Z,6.24
2023-04-10T06:24:29.849Z,6.25
2023-04-10T06:25:29.155Z,6.27
2023-04-10T06:26:29.494Z,6.28
2023-04-10T06:27:29.117Z,6.30
2023-04-10T06:28:29.510Z,6.32
2023-04-10T06:29:29.103Z,6.35
2023-04-10T06:30:29.820Z,6.33
2023-04-10T06:31:29.189Z,6.36
2023-04-10T06:32:29.190Z,6.36
2023-04-10T06:33:29.058Z,6.39
2023-04-10T06:34:29.108Z,6.40
2023-04-10T06:35:29.250Z,6.42
2023-04-10T06:36:29.201Z,6.43
2023-04-10T06:37:29.022Z,6.45
2023-04-10T06:38:29.045Z,6.46
2023-04-10T06:39:29.018Z,6.48
2023-04-10T06:40:29.019Z,6.48
2023-04-10T06:41:29.199Z,6.50
2023-04-10T06:42:28.969Z,6.51
2023-04-10T06:43:28.944Z,6.51
2023-04-10T06:44:29.091Z,6.51
2023-04-10T06:45:28.947Z,6.54
2023-04-10T06:46:29.116Z,6.54
2023-04-10T06:47:28.931Z,6.54
2023-04-10T06:48:28.898Z,6.55
2023-04-10T06:49:28.884Z,6.57
2023-04-10T06:50:28.897Z,6.57
2023-04-10T06:51:29.125Z,6.58
2023-04-10T06:52:28.852Z,6.58
2023-04-10T06:53:28.839Z,6.60
2023-04-10T06:54:29.126Z,6.61
2023-04-10T06:55:28.941Z,6.61
2023-04-10T06:56:28.813Z,6.61
2023-04-10T06:57:28.816Z,6.61
2023-04-10T06:58:28.796Z,6.64
2023-04-10T06:59:28.778Z,6.64
2023-04-10T07:00:28.824Z,6.68
2023-04-10T07:01:28.818Z,6.69
2023-04-10T07:02:28.863Z,6.71
2023-04-10T07:03:28.769Z,6.72
2023-04-10T07:04:28.738Z,6.76
2023-04-10T07:05:28.828Z,6.78
2023-04-10T07:06:28.706Z,6.81
2023-04-10T07:07:28.750Z,6.86
2023-04-10T07:08:28.686Z,6.87
2023-04-10T07:09:29.054Z,6.90
2023-04-10T07:10:28.668Z,6.96
2023-04-10T07:11:28.772Z,7.00
2023-04-10T07:12:28.637Z,7.04
2023-04-10T07:13:28.952Z,7.08
2023-04-10T07:14:28.685Z,7.14
2023-04-10T07:15:28.729Z,7.16
2023-04-10T07:16:28.943Z,7.21
2023-04-10T07:17:29.119Z,7.26
2023-04-10T07:18:28.597Z,7.32
2023-04-10T07:19:28.555Z,7.37
2023-04-10T07:20:28.557Z,7.44
2023-04-10T07:21:28.564Z,7.48
2023-04-10T07:22:28.533Z,7.52
2023-04-10T07:23:28.529Z,7.54
2023-04-10T07:24:28.505Z,7.62
2023-04-10T07:25:28.505Z,7.69
2023-04-10T07:26:28.489Z,7.73
2023-04-10T07:27:28.475Z,7.81
2023-04-10T07:28:28.485Z,7.85
2023-04-10T07:29:28.457Z,7.91
2023-04-10T07:30:28.453Z,7.91
2023-04-10T07:31:28.505Z,7.96
2023-04-10T07:32:28.554Z,8.00
2023-04-10T07:33:28.422Z,8.03
2023-04-10T07:34:28.410Z,8.07
2023-04-10T07:35:28.390Z,8.10
2023-04-10T07:36:28.400Z,8.13
2023-04-10T07:37:28.367Z,8.18
2023-04-10T07:38:28.377Z,8.22
2023-04-10T07:39:28.367Z,8.27
2023-04-10T07:40:28.341Z,8.29
2023-04-10T07:41:28.346Z,8.36
2023-04-10T07:42:28.321Z,8.37
2023-04-10T07:43:28.303Z,8.40
2023-04-10T07:44:28.307Z,8.43
2023-04-10T07:45:28.343Z,8.46
2023-04-10T07:46:28.293Z,8.52
2023-04-10T07:47:28.334Z,8.57
2023-04-10T07:48:28.329Z,8.60
2023-04-10T07:49:28.977Z,8.65
2023-04-10T07:50:28.269Z,8.67
2023-04-10T07:51:28.961Z,8.68
2023-04-10T07:52:28.229Z,8.75
2023-04-10T07:53:28.275Z,8.79
2023-04-10T07:54:28.263Z,8.83
2023-04-10T07:55:29.189Z,8.88
2023-04-10T07:56:28.193Z,8.94
2023-04-10T07:57:28.275Z,8.97
2023-04-10T07:58:28.212Z,9.03
2023-04-10T07:59:28.872Z,9.06
2023-04-10T08:00:28.216Z,9.12
2023-04-10T08:01:28.873Z,9.15
2023-04-10T08:02:28.241Z,9.19
2023-04-10T08:03:28.221Z,9.22
2023-04-10T08:04:28.239Z,9.26
2023-04-10T08:05:28.301Z,9.31
2023-04-10T08:06:28.078Z,9.37
2023-04-10T08:07:28.048Z,9.42
2023-04-10T08:08:28.038Z,9.49
2023-04-10T08:09:28.046Z,9.55
2023-04-10T08:10:28.034Z,9.60
2023-04-10T08:11:28.084Z,9.67
2023-04-10T08:12:28.000Z,9.68
2023-04-10T08:13:27.990Z,9.73
2023-04-10T08:14:28.002Z,9.75
2023-04-10T08:15:27.980Z,9.81
2023-04-10T08:16:27.980Z,9.86
2023-04-10T08:17:27.950Z,9.93
2023-04-10T08:18:27.934Z,9.99
2023-04-10T08:19:27.922Z,10.04
2023-04-10T08:20:27.920Z,10.09
2023-04-10T08:21:27.898Z,10.13
2023-04-10T08:22:27.890Z,10.17
2023-04-10T08:23:27.882Z,10.18
2023-04-10T08:24:27.858Z,10.24
2023-04-10T08:25:27.897Z,10.25
2023-04-10T08:26:27.851Z,10.31
2023-04-10T08:27:27.831Z,10.34
2023-04-10T08:28:27.819Z,10.42
2023-04-10T08:29:27.826Z,10.49
2023-04-10T08:30:27.806Z,10.54
2023-04-10T08:31:28.286Z,10.55
2023-04-10T08:32:27.810Z,10.62
2023-04-10T08:33:29.756Z,10.63
2023-04-10T08:34:27.783Z,10.68
2023-04-10T08:35:27.752Z,10.72
2023-04-10T08:36:27.757Z,10.78
2023-04-10T08:37:27.783Z,10.87
2023-04-10T08:38:27.771Z,10.95
2023-04-10T08:39:27.712Z,11.05
2023-04-10T08:40:27.690Z,11.08
2023-04-10T08:41:27.701Z,11.11
2023-04-10T08:42:27.676Z,11.13
2023-04-10T08:43:27.673Z,11.17
2023-04-10T08:44:27.661Z,11.23
2023-04-10T08:45:27.644Z,11.26
2023-04-10T08:46:27.697Z,11.28
2023-04-10T08:47:27.635Z,11.35
2023-04-10T08:48:27.611Z,11.38
2023-04-10T08:49:27.645Z,11.44
2023-04-10T08:50:27.587Z,11.49
2023-04-10T08:51:27.585Z,11.57
2023-04-10T08:52:27.567Z,11.64
2023-04-10T08:53:27.562Z,11.74
2023-04-10T08:54:27.556Z,11.77
2023-04-10T08:55:27.543Z,11.84
2023-04-10T08:56:27.527Z,11.90
2023-04-10T08:57:27.533Z,11.97
2023-04-10T08:58:27.502Z,12.04
2023-04-10T08:59:27.497Z,12.15
2023-04-10T09:00:27.520Z,12.22
2023-04-10T09:01:27.521Z,12.25
2023-04-10T09:02:27.656Z,12.33
2023-04-10T09:03:27.616Z,12.36
2023-04-10T09:04:27.881Z,12.44
2023-04-10T09:05:27.433Z,12.51
2023-04-10T09:06:28.469Z,12.56
2023-04-10T09:07:27.447Z,12.62
2023-04-10T09:08:28.129Z,12.66
2023-04-10T09:09:27.463Z,12.69
2023-04-10T09:10:27.382Z,12.71
2023-04-10T09:11:27.392Z,12.71
2023-04-10T09:12:27.363Z,12.73
2023-04-10T09:13:27.344Z,12.76
2023-04-10T09:14:27.341Z,12.77
2023-04-10T09:15:27.324Z,12.80
2023-04-10T09:16:27.468Z,12.81
2023-04-10T09:17:27.382Z,12.85
2023-04-10T09:18:27.286Z,12.87
2023-04-10T09:19:27.284Z,12.88
2023-04-10T09:20:27.274Z,12.92
2023-04-10T09:21:27.273Z,12.92
2023-04-10T09:22:27.270Z,12.95
2023-04-10T09:23:27.243Z,12.98
2023-04-10T09:24:27.252Z,13.06
2023-04-10T09:25:27.223Z,13.10
2023-04-10T09:26:27.230Z,13.13
2023-04-10T09:27:27.197Z,13.17
2023-04-10T09:28:27.188Z,13.19
2023-04-10T09:29:27.190Z,13.24
2023-04-10T09:30:27.155Z,13.28
2023-04-10T09:31:27.239Z,13.32
2023-04-10T09:32:27.209Z,13.36
2023-04-10T09:33:27.135Z,13.39
2023-04-10T09:34:27.118Z,13.46
2023-04-10T09:35:27.111Z,13.50
2023-04-10T09:36:27.147Z,13.57
2023-04-10T09:37:27.099Z,13.61
2023-04-10T09:38:27.071Z,13.62
2023-04-10T09:39:27.070Z,13.65
2023-04-10T09:40:27.104Z,13.66
2023-04-10T09:41:27.045Z,13.69
2023-04-10T09:42:27.032Z,13.72
2023-04-10T09:43:27.049Z,13.75
2023-04-10T09:44:27.009Z,13.80
2023-04-10T09:45:27.006Z,13.83
2023-04-10T09:46:27.041Z,13.86
2023-04-10T09:47:27.051Z,13.93
2023-04-10T09:48:26.972Z,13.98
2023-04-10T09:49:26.966Z,14.04
2023-04-10T09:50:26.942Z,14.12
2023-04-10T09:51:26.960Z,14.19
2023-04-10T09:52:26.923Z,14.27
2023-04-10T09:53:26.917Z,14.34
2023-04-10T09:54:26.897Z,14.39
2023-04-10T09:55:26.899Z,14.44
2023-04-10T09:56:27.163Z,14.46
2023-04-10T09:57:26.884Z,14.52
2023-04-10T09:58:26.866Z,14.59
2023-04-10T09:59:26.855Z,14.63
2023-04-10T10:00:26.842Z,14.67
2023-04-10T10:01:26.870Z,14.72
2023-04-10T10:02:26.908Z,14.78
2023-04-10T10:03:26.996Z,14.80
2023-04-10T10:04:26.827Z,14.90
2023-04-10T10:05:26.791Z,14.93
2023-04-10T10:06:26.792Z,14.97
2023-04-10T10:07:26.769Z,15.03
2023-04-10T10:08:26.770Z,15.05
2023-04-10T10:09:29.198Z,15.07
2023-04-10T10:10:26.733Z,15.11
2023-04-10T10:11:26.750Z,15.13
2023-04-10T10:12:26.719Z,15.18
2023-04-10T10:13:26.707Z,15.18
2023-04-10T10:14:26.687Z,15.19
2023-04-10T10:15:26.682Z,15.27
2023-04-10T10:16:26.739Z,15.31
2023-04-10T10:17:26.717Z,15.37
2023-04-10T10:18:26.658Z,15.43
2023-04-10T10:19:26.659Z,15.51
2023-04-10T10:20:26.649Z,15.56
2023-04-10T10:21:26.622Z,15.59
2023-04-10T10:22:26.608Z,15.68
2023-04-10T10:23:26.640Z,15.71
2023-04-10T10:24:26.597Z,15.76
2023-04-10T10:25:26.626Z,15.84
2023-04-10T10:26:26.566Z,15.88
2023-04-10T10:27:26.583Z,15.91
2023-04-10T10:28:26.544Z,15.95
2023-04-10T10:29:26.540Z,15.99
2023-04-10T10:30:30.508Z,16.04
2023-04-10T10:31:26.558Z,16.11
2023-04-10T10:32:26.614Z,16.18
2023-04-10T10:33:26.518Z,16.27
2023-04-10T10:34:26.484Z,16.34
2023-04-10T10:35:28.747Z,16.42
2023-04-10T10:36:26.542Z,16.51
2023-04-10T10:37:26.592Z,16.59
2023-04-10T10:38:26.505Z,16.65
2023-04-10T10:39:26.582Z,16.75
2023-04-10T10:40:26.448Z,16.85
2023-04-10T10:41:26.464Z,16.91
2023-04-10T10:42:26.594Z,17.02
2023-04-10T10:43:26.460Z,17.10
2023-04-10T10:44:26.537Z,17.21
2023-04-10T10:45:26.710Z,17.28
2023-04-10T10:46:26.418Z,17.36
2023-04-10T10:47:26.419Z,17.42
2023-04-10T10:48:26.417Z,17.51
2023-04-10T10:49:26.377Z,17.58
2023-04-10T10:50:26.364Z,17.70
2023-04-10T10:51:26.420Z,17.76
2023-04-10T10:52:26.344Z,17.81
2023-04-10T10:53:26.336Z,17.86
2023-04-10T10:54:26.264Z,17.91
2023-04-10T10:55:26.323Z,17.98
2023-04-10T10:56:26.254Z,18.02
2023-04-10T10:57:26.384Z,18.05
2023-04-10T10:58:26.224Z,18.09
2023-04-10T10:59:26.215Z,18.07
2023-04-10T11:00:26.216Z,18.10
2023-04-10T11:01:26.277Z,18.11
2023-04-10T11:02:26.444Z,18.14
2023-04-10T11:03:26.327Z,18.16
2023-04-10T11:04:26.242Z,18.14
2023-04-10T11:05:26.278Z,18.13
2023-04-10T11:06:26.143Z,18.14
2023-04-10T11:07:26.136Z,18.11
2023-04-10T11:08:26.145Z,18.10
2023-04-10T11:09:26.170Z,18.07
2023-04-10T11:10:26.094Z,18.05
2023-04-10T11:11:26.088Z,18.01
2023-04-10T11:12:26.075Z,17.96
2023-04-10T11:13:26.074Z,17.96
2023-04-10T11:14:26.052Z,17.95
2023-04-10T11:15:26.083Z,17.98
2023-04-10T11:16:26.103Z,17.96
2023-04-10T11:17:26.046Z,17.94
2023-04-10T11:18:26.153Z,17.95
2023-04-10T11:19:26.419Z,17.94
2023-04-10T11:20:26.037Z,17.95
2023-04-10T11:21:25.982Z,17.99
2023-04-10T11:22:25.982Z,18.02
2023-04-10T11:23:26.008Z,18.04
2023-04-10T11:24:25.940Z,18.10
2023-04-10T11:25:25.993Z,18.16
2023-04-10T11:26:25.927Z,18.21
2023-04-10T11:27:26.891Z,18.26
2023-04-10T11:28:25.899Z,18.29
2023-04-10T11:29:25.915Z,18.34
2023-04-10T11:30:25.878Z,18.41
2023-04-10T11:31:25.937Z,18.47
2023-04-10T11:32:25.872Z,18.49
2023-04-10T11:33:25.856Z,18.47
2023-04-10T11:34:25.838Z,18.46
2023-04-10T11:35:25.901Z,18.41
2023-04-10T11:36:25.807Z,18.46
2023-04-10T11:37:25.820Z,18.53
2023-04-10T11:38:25.792Z,18.60
2023-04-10T11:39:25.784Z,18.71
2023-04-10T11:40:25.770Z,18.76
2023-04-10T11:41:25.777Z,18.84
2023-04-10T11:42:25.747Z,18.90
2023-04-10T11:43:25.744Z,18.97
2023-04-10T11:44:25.742Z,19.07
2023-04-10T11:45:25.721Z,19.17
2023-04-10T11:46:25.809Z,19.25
2023-04-10T11:47:25.758Z,19.32
2023-04-10T11:48:25.681Z,19.39
2023-04-10T11:49:25.696Z,19.46
2023-04-10T11:50:25.659Z,19.50
2023-04-10T11:51:25.652Z,19.57
2023-04-10T11:52:25.644Z,19.61
2023-04-10T11:53:25.633Z,19.64
2023-04-10T11:54:25.632Z,19.71
2023-04-10T11:55:25.609Z,19.76
2023-04-10T11:56:25.609Z,19.80
2023-04-10T11:57:25.591Z,19.87
2023-04-10T11:58:25.584Z,19.95
2023-04-10T11:59:25.580Z,19.98
2023-04-10T12:00:25.559Z,20.02
2023-04-10T12:01:25.551Z,20.12
2023-04-10T12:02:25.635Z,20.25
2023-04-10T12:03:25.654Z,20.40
2023-04-10T12:04:25.707Z,20.58
2023-04-10T12:05:25.497Z,20.75
2023-04-10T12:06:25.499Z,20.93
2023-04-10T12:07:25.508Z,21.08
2023-04-10T12:08:25.475Z,21.22
2023-04-10T12:09:25.461Z,21.40
2023-04-10T12:10:25.449Z,21.59
2023-04-10T12:11:25.441Z,21.75
2023-04-10T12:12:25.425Z,21.94
2023-04-10T12:13:25.424Z,22.01
2023-04-10T12:14:25.407Z,22.05
2023-04-10T12:15:25.445Z,22.17
2023-04-10T12:16:25.388Z,22.41
2023-04-10T12:17:25.419Z,22.59
2023-04-10T12:18:25.364Z,22.81
2023-04-10T12:19:25.354Z,23.14
2023-04-10T12:20:25.358Z,23.62
2023-04-10T12:21:25.325Z,24.04
2023-04-10T12:22:25.325Z,24.49
2023-04-10T12:23:25.316Z,24.90
2023-04-10T12:24:25.292Z,25.36
2023-04-10T12:25:25.292Z,25.75
2023-04-10T12:26:25.283Z,26.16
2023-04-10T12:27:25.286Z,26.68
2023-04-10T12:28:25.257Z,26.56
2023-04-10T12:29:25.254Z,26.47
2023-04-10T12:30:25.230Z,26.66
2023-04-10T12:31:25.265Z,26.78
2023-04-10T12:32:25.266Z,27.01
2023-04-10T12:33:25.210Z,27.48
2023-04-10T12:34:25.194Z,27.87
2023-04-10T12:35:25.225Z,28.27
2023-04-10T12:36:25.196Z,28.74
2023-04-10T12:37:25.164Z,29.30
2023-04-10T12:38:25.177Z,29.58
2023-04-10T12:39:25.142Z,29.73
2023-04-10T12:40:25.160Z,29.76
2023-04-10T12:41:25.124Z,29.88
2023-04-10T12:42:25.113Z,29.86
2023-04-10T12:43:25.116Z,30.13
2023-04-10T12:44:25.113Z,30.23
2023-04-10T12:45:25.096Z,30.40
2023-04-10T12:46:25.121Z,29.94
2023-04-10T12:47:25.195Z,29.94
2023-04-10T12:48:25.068Z,29.85
2023-04-10T12:49:25.046Z,29.57
2023-04-10T12:50:25.036Z,29.35
2023-04-10T12:51:25.035Z,29.20
2023-04-10T12:52:25.006Z,28.83
2023-04-10T12:53:25.006Z,28.50
2023-04-10T12:54:25.000Z,28.32
2023-04-10T12:55:24.981Z,28.14
2023-04-10T12:56:24.968Z,28.06
2023-04-10T12:57:24.980Z,27.83
2023-04-10T12:58:24.945Z,27.52
2023-04-10T12:59:24.953Z,27.46
2023-04-10T13:00:24.927Z,27.34
2023-04-10T13:01:24.937Z,27.20
2023-04-10T13:02:25.073Z,27.11
2023-04-10T13:03:25.093Z,27.02
2023-04-10T13:04:25.011Z,26.78
2023-04-10T13:05:24.872Z,26.49
2023-04-10T13:06:24.862Z,26.34
2023-04-10T13:07:24.850Z,26.28
2023-04-10T13:08:24.842Z,26.11